Time;durP1;ratioP1;P1;durP2;ratioP2;P2;SDS_P1;SDS_P2;PMS_P1;PMS_P2;Temp;Humidity;BMP_temperature;BMP_pressure;BME280_temperature;BME280_humidity;BME280_pressure;Samples;Min_cycle;Max_cycle;Signal;HPM_P1;HPM_P2
2022/05/01 00:00:42;;;;;;;19.00;11.25;;;12.60;61.10;;;;;;2374093;56;21038;-75
2022/05/01 00:03:30;;;;;;;20.12;11.20;;;12.50;61.10;;;;;;2373746;56;21629;-76
2022/05/01 00:05:58;;;;;;;20.98;11.95;;;12.50;60.90;;;;;;2373489;56;21127;-75
2022/05/01 00:08:26;;;;;;;20.30;11.25;;;12.40;61.20;;;;;;2373964;56;21121;-75
2022/05/01 00:10:54;;;;;;;20.60;11.43;;;12.40;61.50;;;;;;2626309;52;21087;-76
2022/05/01 00:13:22;;;;;;;20.08;12.80;;;12.40;61.50;;;;;;2372389;56;21110;-75
2022/05/01 00:15:50;;;;;;;19.60;12.73;;;12.30;61.90;;;;;;2371243;56;21075;-76
2022/05/01 00:18:18;;;;;;;17.42;11.38;;;12.40;62.50;;;;;;2372971;56;21114;-75
2022/05/01 00:20:45;;;;;;;19.92;11.25;;;12.40;62.00;;;;;;2371742;56;21054;-76
2022/05/01 00:23:13;;;;;;;23.38;14.43;;;12.40;61.30;;;;;;2625994;52;21018;-76
2022/05/01 00:25:41;;;;;;;19.98;11.48;;;12.40;60.90;;;;;;2625581;52;21043;-75
2022/05/01 00:28:08;;;;;;;22.48;13.73;;;12.40;60.90;;;;;;2373925;56;21066;-76
2022/05/01 00:30:36;;;;;;;25.15;13.60;;;12.40;60.90;;;;;;2627334;52;21078;-76
2022/05/01 00:38:36;;;;;;;24.48;13.27;;;12.20;61.40;;;;;;2373999;56;21616;-75
2022/05/01 00:41:07;;;;;;;29.87;13.25;;;12.10;61.50;;;;;;2374211;56;21019;-75
2022/05/01 00:43:55;;;;;;;26.35;12.13;;;12.10;61.80;;;;;;2372288;56;21102;-75
2022/05/01 00:46:23;;;;;;;22.33;13.48;;;12.00;62.00;;;;;;2373293;56;21134;-75
2022/05/01 00:48:51;;;;;;;21.37;12.50;;;12.00;62.20;;;;;;2374160;56;21102;-75
2022/05/01 00:51:20;;;;;;;29.73;14.75;;;12.00;62.40;;;;;;2373929;56;21123;-75
2022/05/01 00:53:48;;;;;;;24.63;15.13;;;11.90;62.60;;;;;;2374234;56;21054;-75
2022/05/01 00:56:16;;;;;;;22.48;13.55;;;11.90;62.70;;;;;;2373339;56;21058;-75
2022/05/01 00:58:45;;;;;;;29.67;16.05;;;11.80;62.80;;;;;;2372877;56;21121;-75
2022/05/01 01:01:14;;;;;;;22.83;15.27;;;11.80;63.10;;;;;;2626420;52;21040;-75
2022/05/01 01:03:41;;;;;;;23.48;13.35;;;11.70;63.20;;;;;;2627395;52;21043;-75
2022/05/01 01:06:09;;;;;;;23.12;14.60;;;11.70;63.40;;;;;;2373306;56;21071;-75
2022/05/01 01:08:36;;;;;;;26.65;15.88;;;11.60;63.40;;;;;;2373856;56;21070;-75
2022/05/01 01:11:03;;;;;;;24.70;15.80;;;11.60;63.40;;;;;;2374105;56;21039;-75
2022/05/01 01:13:31;;;;;;;27.45;15.90;;;11.50;63.60;;;;;;2373982;56;21114;-75
2022/05/01 01:15:58;;;;;;;29.00;14.85;;;11.50;63.80;;;;;;2372213;56;21157;-75
2022/05/01 01:18:27;;;;;;;29.58;16.45;;;11.50;64.00;;;;;;2373245;56;21098;-75
2022/05/01 01:20:54;;;;;;;26.02;16.48;;;11.40;64.00;;;;;;2373859;56;21031;-75
2022/05/01 01:23:22;;;;;;;25.85;14.80;;;11.40;64.00;;;;;;2374394;56;21078;-75
2022/05/01 01:25:51;;;;;;;22.90;14.80;;;11.30;64.10;;;;;;2373596;56;21106;-75
2022/05/01 01:28:20;;;;;;;26.52;16.25;;;11.30;64.00;;;;;;2374147;56;21118;-75
2022/05/01 01:33:33;;;;;;;31.15;16.08;;;11.30;63.70;;;;;;2373059;56;20991;-75
2022/05/01 01:36:04;;;;;;;27.90;17.27;;;11.20;63.90;;;;;;2372752;56;21077;-75
2022/05/01 01:38:31;;;;;;;24.27;16.12;;;11.20;64.20;;;;;;2373835;56;21069;-75
2022/05/01 01:41:00;;;;;;;25.70;17.20;;;11.10;64.20;;;;;;2373997;56;21130;-74
2022/05/01 01:43:29;;;;;;;25.88;15.18;;;11.10;64.30;;;;;;2627594;52;21605;-75
2022/05/01 01:45:57;;;;;;;24.00;15.93;;;11.10;64.40;;;;;;2373391;56;21202;-75
2022/05/01 01:48:24;;;;;;;25.00;15.48;;;11.00;64.40;;;;;;2374011;56;21086;-75
2022/05/01 01:50:59;;;;;;;25.88;15.30;;;11.00;64.70;;;;;;2625962;52;21086;-75
2022/05/01 01:53:27;;;;;;;24.70;15.43;;;10.90;64.90;;;;;;2627792;52;21046;-75
2022/05/01 01:55:54;;;;;;;29.27;16.10;;;10.90;65.20;;;;;;2373573;56;21102;-75
2022/05/01 01:58:22;;;;;;;25.42;15.35;;;10.80;65.20;;;;;;2374036;56;21043;-75
2022/05/01 02:00:49;;;;;;;24.40;15.80;;;10.80;65.50;;;;;;2374055;56;21146;-75
2022/05/01 02:03:16;;;;;;;32.58;18.12;;;10.80;65.90;;;;;;2374103;56;21039;-75
2022/05/01 02:05:44;;;;;;;31.58;17.85;;;10.70;65.90;;;;;;2373389;56;21085;-75
2022/05/01 02:08:11;;;;;;;27.35;15.25;;;10.60;66.10;;;;;;2374087;56;21062;-75
2022/05/01 02:10:40;;;;;;;24.95;15.48;;;10.70;66.30;;;;;;2373942;56;21027;-75
2022/05/01 02:13:08;;;;;;;26.35;15.95;;;10.60;66.40;;;;;;2373966;56;21098;-75
2022/05/01 02:15:35;;;;;;;32.03;17.85;;;10.60;66.40;;;;;;2373882;56;21102;-75
2022/05/01 02:18:04;;;;;;;30.42;17.33;;;10.60;66.40;;;;;;2373696;56;21632;-75
2022/05/01 02:21:34;;;;;;;29.20;17.70;;;10.60;66.40;;;;;;2374082;56;21039;-75
2022/05/01 02:24:02;;;;;;;29.75;17.08;;;10.60;66.60;;;;;;2373823;56;21118;-75
2022/05/01 02:26:29;;;;;;;30.55;17.60;;;10.60;66.60;;;;;;2373611;56;21058;-75
2022/05/01 02:28:57;;;;;;;31.60;19.70;;;10.60;66.90;;;;;;2374064;56;21074;-75
2022/05/01 02:31:24;;;;;;;25.50;16.70;;;10.50;67.20;;;;;;2374186;56;21027;-75
2022/05/01 02:33:51;;;;;;;31.67;18.02;;;10.50;67.30;;;;;;2374057;56;21055;-75
2022/05/01 02:36:19;;;;;;;28.08;17.17;;;10.50;67.60;;;;;;2626659;52;21090;-75
2022/05/01 02:38:47;;;;;;;26.90;15.05;;;10.50;67.70;;;;;;2627302;52;21632;-75
2022/05/01 02:41:14;;;;;;;26.95;15.75;;;10.60;67.70;;;;;;2373445;56;21055;-75
2022/05/01 02:43:42;;;;;;;25.67;17.62;;;10.60;67.80;;;;;;2374212;56;21038;-75
2022/05/01 02:46:09;;;;;;;29.90;18.87;;;10.60;67.90;;;;;;2373547;56;21086;-75
2022/05/01 02:48:36;;;;;;;29.20;18.23;;;10.60;68.10;;;;;;2626340;52;21059;-75
2022/05/01 02:51:04;;;;;;;28.60;17.37;;;10.50;68.10;;;;;;2373014;56;21043;-75
2022/05/01 02:53:32;;;;;;;28.12;16.33;;;10.50;68.30;;;;;;2374152;56;21039;-75
2022/05/01 02:56:00;;;;;;;27.00;16.02;;;10.60;68.50;;;;;;2373694;56;21052;-75
2022/05/01 02:58:28;;;;;;;22.15;13.88;;;10.60;68.20;;;;;;2374062;56;21057;-74
2022/05/01 03:00:56;;;;;;;22.37;15.00;;;10.60;68.40;;;;;;2373897;56;21615;-75
2022/05/01 03:03:24;;;;;;;27.80;15.35;;;10.60;68.40;;;;;;2374088;56;21052;-75
2022/05/01 03:05:52;;;;;;;25.12;15.23;;;10.70;68.40;;;;;;2372741;56;21066;-75
2022/05/01 03:08:19;;;;;;;29.02;15.48;;;10.70;68.50;;;;;;2373203;56;21137;-75
2022/05/01 03:10:47;;;;;;;26.45;15.30;;;10.70;68.60;;;;;;2374023;56;21083;-75
2022/05/01 03:13:15;;;;;;;24.70;15.32;;;10.60;68.70;;;;;;2374209;56;21043;-75
2022/05/01 03:15:42;;;;;;;28.05;15.70;;;10.60;68.80;;;;;;2373564;56;21620;-75
2022/05/01 03:23:40;;;;;;;24.33;14.27;;;10.70;68.60;;;;;;2373171;56;21067;-74
2022/05/01 03:26:07;;;;;;;24.23;14.60;;;10.60;68.70;;;;;;2372765;56;21719;-75
2022/05/01 03:28:35;;;;;;;28.98;16.08;;;10.60;68.80;;;;;;2373892;56;21042;-75
2022/05/01 03:31:08;;;;;;;28.80;15.70;;;10.60;68.90;;;;;;2374221;56;21518;-75
2022/05/01 03:33:36;;;;;;;23.62;16.98;;;10.60;68.90;;;;;;2627581;52;21509;-75
2022/05/01 03:36:06;;;;;;;21.33;13.93;;;10.60;68.90;;;;;;2373773;56;21110;-75
2022/05/01 03:38:36;;;;;;;22.35;13.18;;;10.60;69.10;;;;;;2374050;56;21042;-75
2022/05/01 03:41:05;;;;;;;19.92;11.98;;;10.60;69.20;;;;;;2373060;56;21747;-75
2022/05/01 03:43:33;;;;;;;23.75;13.95;;;10.70;69.20;;;;;;2373858;56;21122;-75
2022/05/01 03:46:01;;;;;;;21.87;14.52;;;10.70;69.00;;;;;;2373417;56;21043;-75
2022/05/01 03:48:28;;;;;;;23.30;13.88;;;10.80;68.90;;;;;;2373793;56;21031;-75
2022/05/01 03:50:56;;;;;;;20.52;13.60;;;10.80;68.80;;;;;;2373679;56;21127;-75
2022/05/01 03:53:24;;;;;;;25.90;14.07;;;10.80;68.50;;;;;;2373878;56;21533;-75
2022/05/01 03:55:52;;;;;;;23.75;15.05;;;10.80;68.10;;;;;;2373734;56;21039;-75
2022/05/01 03:58:20;;;;;;;22.85;13.45;;;10.80;68.10;;;;;;2373872;56;21050;-75
2022/05/01 04:00:48;;;;;;;20.95;13.98;;;10.80;68.20;;;;;;2373890;56;21035;-75
2022/05/01 04:03:16;;;;;;;27.70;13.65;;;10.80;68.20;;;;;;2373753;56;21059;-75
2022/05/01 04:05:43;;;;;;;26.75;13.85;;;10.80;68.40;;;;;;2373734;56;21050;-75
2022/05/01 04:08:11;;;;;;;24.52;13.40;;;10.90;68.70;;;;;;2627314;52;21050;-75
2022/05/01 04:10:41;;;;;;;28.27;12.02;;;10.80;68.80;;;;;;2627193;52;21099;-75
2022/05/01 04:13:08;;;;;;;24.73;12.75;;;10.90;69.00;;;;;;2627053;52;21035;-75
2022/05/01 04:15:37;;;;;;;22.30;11.90;;;10.90;69.00;;;;;;2373379;56;21617;-75
2022/05/01 04:18:05;;;;;;;20.42;12.63;;;10.90;68.90;;;;;;2373927;56;21143;-75
2022/05/01 04:20:33;;;;;;;20.80;12.68;;;10.90;68.80;;;;;;2373999;56;21063;-75
2022/05/01 04:23:02;;;;;;;22.90;13.45;;;10.90;68.80;;;;;;2373715;56;21111;-75
2022/05/01 04:25:30;;;;;;;19.52;11.85;;;10.90;68.80;;;;;;2373634;56;21117;-75
2022/05/01 04:28:00;;;;;;;15.63;10.77;;;10.90;68.80;;;;;;2373315;56;21166;-75
2022/05/01 04:30:28;;;;;;;21.92;13.00;;;10.90;69.00;;;;;;2627234;52;21035;-75
2022/05/01 04:32:57;;;;;;;14.75;10.68;;;10.90;68.90;;;;;;2373554;56;21075;-75
2022/05/01 04:35:26;;;;;;;17.10;11.35;;;10.90;68.90;;;;;;2373596;56;21046;-75
2022/05/01 04:37:53;;;;;;;22.17;13.00;;;11.00;68.90;;;;;;2568197;52;21027;-75
2022/05/01 04:40:21;;;;;;;16.08;10.65;;;11.00;69.60;;;;;;2385085;56;21093;-75
2022/05/01 04:42:48;;;;;;;20.33;11.43;;;11.00;68.70;;;;;;2384626;56;21463;-74
2022/05/01 04:45:15;;;;;;;23.15;11.82;;;11.00;68.80;;;;;;2384712;56;21047;-75
2022/05/01 04:47:42;;;;;;;20.37;11.90;;;11.00;68.70;;;;;;2363270;56;21020;-74
2022/05/01 04:50:11;;;;;;;20.60;11.82;;;11.00;68.90;;;;;;2357400;57;21040;-74
2022/05/01 04:52:39;;;;;;;19.40;10.45;;;11.10;68.90;;;;;;2357424;57;21020;-74
2022/05/01 04:55:08;;;;;;;21.60;11.55;;;11.00;69.00;;;;;;2607215;53;21016;-75
2022/05/01 04:57:37;;;;;;;18.27;10.48;;;11.10;69.00;;;;;;2355910;57;21506;-75
2022/05/01 05:02:43;;;;;;;17.15;10.63;;;11.10;68.80;;;;;;2328438;57;22080;-76
2022/05/01 05:05:11;;;;;;;17.98;12.18;;;11.10;68.90;;;;;;2347325;57;21049;-77
2022/05/01 05:07:40;;;;;;;18.40;11.00;;;11.10;69.00;;;;;;2368053;56;21039;-76
2022/05/01 05:10:09;;;;;;;17.90;10.82;;;11.10;69.00;;;;;;2375089;56;21034;-76
2022/05/01 05:12:38;;;;;;;18.20;10.18;;;11.10;69.20;;;;;;2375397;56;21414;-76
2022/05/01 05:15:09;;;;;;;22.80;10.38;;;11.10;69.10;;;;;;2374757;56;21097;-75
2022/05/01 05:17:38;;;;;;;20.15;10.32;;;11.10;68.90;;;;;;2374546;56;21102;-74
2022/05/01 05:20:09;;;;;;;19.08;11.20;;;11.10;69.00;;;;;;2374810;56;21051;-75
2022/05/01 05:22:36;;;;;;;21.10;11.48;;;11.10;68.90;;;;;;2375043;56;21167;-75
2022/05/01 05:25:08;;;;;;;17.23;10.23;;;11.10;68.90;;;;;;2374915;56;21034;-75
2022/05/01 05:27:35;;;;;;;18.37;10.32;;;11.00;69.00;;;;;;2628309;52;21572;-74
2022/05/01 05:30:04;;;;;;;23.50;11.02;;;11.00;69.00;;;;;;2374807;56;21039;-75
2022/05/01 05:32:31;;;;;;;22.10;10.85;;;11.10;69.00;;;;;;2375200;56;21142;-75
2022/05/01 05:34:58;;;;;;;18.10;10.48;;;11.00;68.80;;;;;;2373311;56;21043;-75
2022/05/01 05:37:25;;;;;;;18.42;11.10;;;11.00;68.80;;;;;;2374469;56;21019;-75
2022/05/01 05:39:53;;;;;;;20.08;10.30;;;11.00;68.90;;;;;;2374647;56;21047;-75
2022/05/01 05:42:20;;;;;;;18.27;10.18;;;11.00;69.00;;;;;;2375012;56;21027;-74
2022/05/01 05:44:47;;;;;;;23.02;11.40;;;11.00;69.10;;;;;;2375072;56;21098;-74
2022/05/01 05:47:15;;;;;;;21.20;11.50;;;11.00;69.10;;;;;;2374738;56;21031;-75
2022/05/01 05:49:42;;;;;;;19.77;9.63;;;10.90;69.20;;;;;;2374821;56;21039;-75
2022/05/01 05:52:09;;;;;;;16.75;9.45;;;10.90;69.30;;;;;;2374950;56;21098;-75
2022/05/01 05:54:36;;;;;;;18.98;9.73;;;10.90;69.50;;;;;;2374603;56;21043;-74
2022/05/01 05:57:05;;;;;;;19.73;9.65;;;10.90;69.60;;;;;;2374645;56;21034;-75
2022/05/01 05:59:32;;;;;;;21.15;9.77;;;10.90;69.40;;;;;;2373868;56;21090;-75
2022/05/01 06:02:00;;;;;;;15.80;9.13;;;10.90;69.70;;;;;;2374589;56;21122;-75
2022/05/01 06:04:28;;;;;;;12.50;9.18;;;10.90;69.80;;;;;;2375304;56;21019;-75
2022/05/01 06:06:55;;;;;;;18.80;9.38;;;10.90;69.70;;;;;;2374530;56;21099;-74
2022/05/01 06:09:22;;;;;;;13.05;7.37;;;10.90;69.80;;;;;;2375139;56;21050;-75
2022/05/01 06:11:50;;;;;;;22.55;8.98;;;10.90;69.60;;;;;;2374832;56;21039;-74
2022/05/01 06:14:17;;;;;;;14.25;7.07;;;10.90;69.90;;;;;;2373341;56;21130;-75
2022/05/01 06:16:44;;;;;;;17.20;9.23;;;10.90;69.80;;;;;;2372725;56;21015;-76
2022/05/01 06:21:48;;;;;;;16.45;7.80;;;10.90;70.70;;;;;;2355691;57;22058;-74
2022/05/01 06:24:15;;;;;;;20.25;8.43;;;10.80;71.20;;;;;;2347327;57;21148;-73
2022/05/01 06:26:42;;;;;;;13.62;7.50;;;10.80;71.10;;;;;;2606906;52;21050;-73
2022/05/01 06:29:09;;;;;;;12.32;7.80;;;10.80;71.40;;;;;;2374884;56;21148;-77
2022/05/01 06:31:40;;;;;;;10.38;6.30;;;10.90;71.80;;;;;;2375122;56;21584;-74
2022/05/01 06:34:09;;;;;;;19.30;6.15;;;10.90;71.30;;;;;;2374889;56;21035;-76
2022/05/01 06:36:36;;;;;;;17.23;6.20;;;10.90;70.50;;;;;;2374350;56;21055;-75
2022/05/01 06:39:04;;;;;;;11.57;6.47;;;11.00;70.70;;;;;;2374869;56;21102;-74
2022/05/01 06:41:31;;;;;;;13.82;5.78;;;11.00;72.20;;;;;;2628393;52;21046;-74
2022/05/01 06:43:59;;;;;;;12.05;5.47;;;11.00;71.60;;;;;;2373732;56;21672;-75
2022/05/01 06:46:26;;;;;;;12.75;5.47;;;11.10;71.70;;;;;;2374078;56;21185;-74
2022/05/01 06:48:53;;;;;;;14.80;6.07;;;11.00;72.20;;;;;;2373918;56;21109;-75
2022/05/01 06:51:20;;;;;;;11.88;6.53;;;11.00;72.10;;;;;;2375103;56;21557;-75
2022/05/01 06:53:47;;;;;;;10.13;5.25;;;11.00;72.40;;;;;;2374662;56;21051;-75
2022/05/01 06:56:15;;;;;;;10.82;5.95;;;11.00;72.80;;;;;;2374423;56;21055;-75
2022/05/01 06:58:42;;;;;;;9.57;5.85;;;11.00;72.70;;;;;;2374816;56;21046;-74
2022/05/01 07:01:09;;;;;;;15.63;6.68;;;11.00;71.90;;;;;;2374070;56;21067;-75
2022/05/01 07:03:36;;;;;;;14.45;5.78;;;11.00;72.50;;;;;;2374980;56;21035;-75
2022/05/01 07:06:04;;;;;;;12.45;6.60;;;11.00;72.90;;;;;;2627539;52;21043;-75
2022/05/01 07:08:31;;;;;;;12.32;5.05;;;11.10;73.00;;;;;;2628743;52;21974;-75
2022/05/01 07:10:59;;;;;;;8.90;4.55;;;11.20;71.10;;;;;;2374275;56;21158;-72
2022/05/01 07:13:26;;;;;;;10.07;4.97;;;11.30;72.20;;;;;;2626371;52;21051;-75
2022/05/01 07:15:53;;;;;;;11.98;4.05;;;11.50;71.60;;;;;;2626636;52;21584;-75
2022/05/01 07:18:21;;;;;;;7.28;3.80;;;11.60;69.80;;;;;;2374329;56;21125;-74
2022/05/01 07:20:49;;;;;;;8.65;3.62;;;11.70;69.60;;;;;;2374227;56;21047;-73
2022/05/01 07:25:51;;;;;;;9.07;3.08;;;11.80;68.90;;;;;;2308428;57;27902;-75
2022/05/01 07:28:19;;;;;;;7.12;2.80;;;12.10;66.70;;;;;;2346753;57;21049;-74
2022/05/01 07:30:46;;;;;;;7.18;2.95;;;12.20;66.10;;;;;;2346598;57;21230;-76
2022/05/01 07:33:13;;;;;;;7.82;3.10;;;12.40;66.00;;;;;;2347250;57;21510;-76
2022/05/01 07:35:41;;;;;;;4.18;2.90;;;12.40;64.20;;;;;;2346637;57;21105;-76
2022/05/01 07:38:08;;;;;;;5.72;3.12;;;12.40;64.20;;;;;;2347197;57;21042;-77
2022/05/01 07:40:36;;;;;;;9.80;3.25;;;12.50;64.60;;;;;;2346888;57;21141;-77
2022/05/01 07:43:03;;;;;;;6.70;4.07;;;12.60;64.60;;;;;;2346957;57;21077;-74
2022/05/01 07:45:31;;;;;;;7.10;2.92;;;12.70;65.00;;;;;;2346546;57;21113;-75
2022/05/01 07:47:59;;;;;;;8.05;3.20;;;12.70;64.40;;;;;;2594316;53;21030;-74
2022/05/01 07:50:27;;;;;;;5.95;3.03;;;12.80;63.00;;;;;;2346944;57;21129;-76
2022/05/01 07:52:54;;;;;;;11.77;3.30;;;12.80;63.80;;;;;;2347133;57;21085;-75
2022/05/01 07:55:21;;;;;;;9.50;3.97;;;12.80;63.70;;;;;;2346362;57;21054;-76
2022/05/01 07:57:49;;;;;;;10.35;2.72;;;12.80;63.60;;;;;;2347238;57;21058;-75
2022/05/01 08:00:17;;;;;;;8.85;2.72;;;12.90;63.60;;;;;;2346813;57;21663;-75
2022/05/01 08:05:29;;;;;;;7.62;2.80;;;13.00;62.80;;;;;;2346485;57;21543;-77
2022/05/01 08:07:58;;;;;;;5.87;2.62;;;13.00;62.90;;;;;;2346940;57;21093;-77
2022/05/01 08:10:26;;;;;;;11.50;2.78;;;13.00;62.90;;;;;;2346568;57;21550;-74
2022/05/01 08:12:56;;;;;;;4.43;2.15;;;13.00;63.20;;;;;;2347005;57;21085;-74
2022/05/01 08:15:24;;;;;;;8.55;2.50;;;13.00;62.10;;;;;;2346378;57;22141;-75
2022/05/01 08:17:51;;;;;;;9.30;3.00;;;13.00;61.60;;;;;;2346756;57;21678;-74
2022/05/01 08:25:58;;;;;;;6.85;2.53;;;13.00;61.00;;;;;;2333293;57;27722;-74
2022/05/01 08:28:25;;;;;;;3.58;2.22;;;12.90;59.80;;;;;;2347238;57;21355;-75
2022/05/01 08:30:52;;;;;;;5.22;2.00;;;13.00;60.30;;;;;;2347128;57;21128;-76
2022/05/01 08:33:19;;;;;;;6.30;2.92;;;13.00;59.70;;;;;;2594465;53;21053;-76
2022/05/01 08:35:47;;;;;;;6.10;2.70;;;13.10;59.50;;;;;;2346215;57;21100;-75
2022/05/01 08:38:14;;;;;;;4.80;2.95;;;13.10;59.00;;;;;;2347618;57;21591;-76
2022/05/01 08:43:19;;;;;;;6.10;2.80;;;13.20;58.60;;;;;;2335264;57;27840;-75
2022/05/01 08:46:00;;;;;;;6.68;2.65;;;13.30;59.70;;;;;;2346246;57;21081;-76
2022/05/01 08:48:35;;;;;;;4.00;2.17;;;13.30;59.40;;;;;;2319930;58;21071;-76
2022/05/01 08:51:04;;;;;;;5.32;2.53;;;13.30;58.90;;;;;;2320150;58;21400;-76
2022/05/01 08:53:31;;;;;;;11.40;3.35;;;13.40;57.70;;;;;;2561454;53;21111;-76
2022/05/01 08:55:59;;;;;;;7.40;2.08;;;13.40;58.00;;;;;;2319660;58;21061;-75
2022/05/01 08:58:28;;;;;;;6.22;2.17;;;13.40;57.10;;;;;;2319678;58;21056;-76
2022/05/01 09:00:58;;;;;;;9.10;3.33;;;13.40;57.30;;;;;;2319603;58;21056;-76
2022/05/01 09:03:25;;;;;;;5.18;2.55;;;13.40;57.40;;;;;;2561483;54;21115;-76
2022/05/01 09:05:53;;;;;;;6.87;2.20;;;13.50;57.20;;;;;;2560410;53;21096;-76
2022/05/01 09:08:22;;;;;;;5.00;2.45;;;13.60;57.20;;;;;;2561221;53;21645;-76
2022/05/01 09:10:50;;;;;;;6.82;2.92;;;13.70;57.40;;;;;;2320081;58;21071;-75
2022/05/01 09:13:22;;;;;;;7.25;2.70;;;13.70;57.30;;;;;;2319510;58;21127;-76
2022/05/01 09:15:50;;;;;;;3.03;2.08;;;13.70;57.10;;;;;;2319651;58;21127;-74
2022/05/01 09:18:19;;;;;;;4.85;2.40;;;13.70;56.20;;;;;;2319737;58;21060;-76
2022/05/01 09:21:02;;;;;;;8.02;2.15;;;13.80;56.30;;;;;;2320058;58;21119;-74
2022/05/01 09:23:37;;;;;;;3.45;1.80;;;13.90;56.30;;;;;;2319805;58;21063;-77
2022/05/01 09:26:05;;;;;;;2.50;2.05;;;14.00;55.70;;;;;;2561071;53;21055;-74
2022/05/01 09:28:32;;;;;;;7.80;1.95;;;14.00;54.50;;;;;;2319722;58;21123;-75
2022/05/01 09:31:00;;;;;;;5.50;2.05;;;14.00;54.20;;;;;;2320051;58;21055;-75
2022/05/01 09:33:27;;;;;;;4.45;1.75;;;14.10;53.00;;;;;;2561408;54;21060;-73
2022/05/01 09:35:54;;;;;;;2.53;1.85;;;14.10;51.60;;;;;;2319723;58;21171;-75
2022/05/01 09:38:23;;;;;;;5.00;1.85;;;14.10;51.20;;;;;;2561181;53;22544;-75
2022/05/01 09:40:54;;;;;;;3.58;1.75;;;14.10;51.20;;;;;;2319926;58;21067;-74
2022/05/01 09:43:38;;;;;;;3.90;1.70;;;14.10;51.20;;;;;;2319062;58;21602;-74
2022/05/01 09:46:15;;;;;;;3.65;1.90;;;14.30;51.00;;;;;;2319688;58;21032;-74
2022/05/01 09:48:44;;;;;;;4.35;1.80;;;14.30;51.30;;;;;;2561239;54;21063;-76
2022/05/01 09:51:16;;;;;;;2.35;1.50;;;14.40;51.30;;;;;;2561993;53;21075;-77
2022/05/01 09:53:45;;;;;;;3.87;2.10;;;14.50;52.40;;;;;;2319764;58;21119;-77
2022/05/01 09:56:13;;;;;;;2.90;1.70;;;14.60;51.80;;;;;;2318963;58;21135;-77
2022/05/01 09:58:40;;;;;;;2.45;1.73;;;14.60;51.10;;;;;;2558459;53;21208;-77
2022/05/01 10:01:12;;;;;;;2.72;1.85;;;14.70;49.80;;;;;;2319186;58;21183;-74
2022/05/01 10:03:41;;;;;;;2.40;1.50;;;14.70;48.20;;;;;;2319481;58;21135;-77
2022/05/01 10:06:10;;;;;;;2.20;1.40;;;14.70;48.00;;;;;;2319077;58;21120;-77
2022/05/01 10:08:39;;;;;;;4.00;1.50;;;14.80;47.60;;;;;;2319219;58;21554;-76
2022/05/01 10:11:07;;;;;;;2.28;1.45;;;14.80;47.30;;;;;;2560759;53;21056;-76
2022/05/01 10:13:36;;;;;;;3.20;1.37;;;14.80;46.00;;;;;;2318497;58;21354;-77
2022/05/01 10:16:08;;;;;;;3.03;1.20;;;14.80;44.70;;;;;;2559779;53;21126;-77
2022/05/01 10:18:36;;;;;;;1.67;0.90;;;14.90;44.60;;;;;;2318943;58;21063;-76
2022/05/01 10:21:04;;;;;;;4.72;1.25;;;15.00;44.90;;;;;;2319292;58;21120;-77
2022/05/01 10:23:33;;;;;;;1.17;1.08;;;15.10;46.30;;;;;;2319239;58;21064;-77
2022/05/01 10:26:06;;;;;;;1.15;1.02;;;15.20;44.20;;;;;;2319099;58;21203;-76
2022/05/01 10:28:56;;;;;;;1.30;1.00;;;15.20;41.90;;;;;;2319165;58;21032;-77
2022/05/01 10:35:08;;;;;;;0.65;0.57;;;15.40;40.60;;;;;;2319171;58;21578;-76
2022/05/01 10:38:00;;;;;;;1.25;0.80;;;15.40;40.20;;;;;;2560302;53;21111;-77
2022/05/01 10:40:32;;;;;;;1.02;0.77;;;15.60;41.70;;;;;;2560716;54;21068;-77
2022/05/01 10:43:23;;;;;;;1.73;0.80;;;15.70;41.40;;;;;;2560773;54;21119;-77
2022/05/01 10:45:52;;;;;;;1.27;1.17;;;15.90;39.50;;;;;;2560810;53;21111;-78
2022/05/01 10:48:31;;;;;;;1.37;0.70;;;16.00;39.30;;;;;;2560789;53;21063;-77
2022/05/01 10:51:43;;;;;;;1.10;1.00;;;16.10;40.70;;;;;;2561359;53;21068;-77
2022/05/01 10:54:38;;;;;;;1.52;0.90;;;16.20;39.70;;;;;;2561043;53;21064;-76
2022/05/01 10:57:14;;;;;;;4.82;1.25;;;16.30;40.40;;;;;;2560436;53;21063;-77
2022/05/01 10:59:46;;;;;;;1.80;0.98;;;16.30;41.30;;;;;;2560284;53;21606;-77
2022/05/01 11:05:46;;;;;;;0.70;0.70;;;16.40;40.00;;;;;;2344933;57;22678;-72
2022/05/01 11:08:16;;;;;;;1.67;1.10;;;16.40;36.50;;;;;;2347709;57;21037;-73
2022/05/01 11:10:44;;;;;;;2.37;0.68;;;16.30;37.70;;;;;;2347602;57;21117;-74
2022/05/01 11:13:16;;;;;;;1.12;0.60;;;16.30;38.00;;;;;;2347448;57;21037;-74
2022/05/01 11:15:49;;;;;;;3.22;0.85;;;16.30;38.10;;;;;;2594416;52;21050;-74
2022/05/01 11:18:26;;;;;;;1.27;0.77;;;16.30;35.70;;;;;;2347958;57;21097;-74
2022/05/01 11:20:53;;;;;;;3.03;1.05;;;16.40;36.50;;;;;;2347999;57;21517;-74
2022/05/01 11:23:33;;;;;;;2.35;1.00;;;16.40;38.00;;;;;;2347487;57;21089;-74
2022/05/01 11:26:15;;;;;;;1.27;1.15;;;16.50;38.50;;;;;;2347657;57;21113;-74
2022/05/01 11:28:44;;;;;;;2.00;1.33;;;16.60;37.90;;;;;;2594343;53;21161;-74
2022/05/01 11:31:43;;;;;;;3.15;1.08;;;16.70;38.30;;;;;;2594245;53;21073;-74
2022/05/01 11:34:37;;;;;;;4.35;0.90;;;16.80;38.40;;;;;;2347778;57;21054;-74
2022/05/01 11:37:07;;;;;;;1.25;1.00;;;16.80;39.60;;;;;;2594906;53;21162;-74
2022/05/01 11:40:11;;;;;;;5.10;0.98;;;16.90;40.40;;;;;;2594292;53;21026;-74
2022/05/01 11:42:38;;;;;;;3.60;1.17;;;17.00;40.40;;;;;;2594596;53;21062;-74
2022/05/01 11:45:08;;;;;;;1.92;1.05;;;17.10;40.50;;;;;;2594272;52;21054;-74
2022/05/01 11:47:36;;;;;;;1.90;0.95;;;17.10;39.30;;;;;;2593802;53;21057;-75
2022/05/01 11:50:05;;;;;;;2.90;1.10;;;17.20;40.30;;;;;;2346877;57;21039;-74
2022/05/01 11:52:37;;;;;;;1.98;1.27;;;17.20;40.00;;;;;;2594576;52;21510;-74
2022/05/01 11:55:08;;;;;;;3.85;1.92;;;17.30;39.60;;;;;;2594882;52;21065;-74
2022/05/01 12:03:12;;;;;;;2.10;1.10;;;17.40;38.50;;;;;;2594615;53;21479;-74
2022/05/01 12:05:44;;;;;;;1.95;1.15;;;17.40;38.70;;;;;;2346655;57;21037;-76
2022/05/01 12:08:12;;;;;;;2.05;1.10;;;17.50;38.60;;;;;;2594846;53;21055;-74
2022/05/01 12:10:42;;;;;;;1.60;1.12;;;17.50;39.20;;;;;;2594761;53;21038;-76
2022/05/01 12:13:20;;;;;;;2.97;1.15;;;17.60;38.50;;;;;;2595039;52;21034;-75
2022/05/01 12:15:48;;;;;;;1.92;1.12;;;17.70;39.00;;;;;;2593173;52;21522;-75
2022/05/01 12:18:15;;;;;;;2.67;1.12;;;17.80;38.90;;;;;;2593131;53;21038;-74
2022/05/01 12:20:43;;;;;;;2.10;1.40;;;17.90;39.00;;;;;;2345920;57;21644;-74
2022/05/01 12:23:15;;;;;;;3.67;1.60;;;17.90;38.90;;;;;;2346038;57;21042;-74
2022/05/01 12:25:43;;;;;;;3.62;1.15;;;18.00;37.30;;;;;;2345671;57;21104;-74
2022/05/01 12:28:12;;;;;;;4.05;1.27;;;17.90;37.10;;;;;;2347067;57;21034;-80
2022/05/01 12:30:40;;;;;;;4.55;1.55;;;17.80;36.70;;;;;;2348280;57;21061;-83
2022/05/01 12:33:07;;;;;;;1.77;1.48;;;17.80;37.10;;;;;;2595897;53;21061;-82
2022/05/01 12:35:55;;;;;;;2.53;0.98;;;17.90;37.40;;;;;;2593689;52;21042;-74
2022/05/01 12:38:25;;;;;;;2.33;1.20;;;18.00;39.10;;;;;;2349064;57;21058;-83
2022/05/01 12:43:53;;;;;;;2.17;1.30;;;18.00;37.80;;;;;;2348981;57;21034;-83
2022/05/01 12:49:02;;;;;;;0.90;0.82;;;18.10;36.70;;;;;;2605459;53;22015;-76
2022/05/01 12:51:36;;;;;;;2.40;1.15;;;18.10;37.40;;;;;;2593813;52;21196;-76
2022/05/01 12:54:16;;;;;;;1.45;1.02;;;18.10;36.90;;;;;;2346463;57;21112;-76
2022/05/01 12:56:45;;;;;;;2.20;1.10;;;18.10;36.60;;;;;;2606161;52;21051;-76
2022/05/01 12:59:29;;;;;;;3.58;1.10;;;18.10;36.70;;;;;;2374762;56;21119;-77
2022/05/01 13:01:57;;;;;;;2.30;1.20;;;18.10;36.80;;;;;;2626650;52;21130;-74
2022/05/01 13:04:29;;;;;;;1.73;1.30;;;18.00;36.70;;;;;;2372879;56;21110;-75
2022/05/01 13:09:51;;;;;;;2.22;1.00;;;18.00;36.70;;;;;;2327312;57;22088;-76
2022/05/01 13:12:30;;;;;;;1.75;1.10;;;17.90;37.00;;;;;;2346012;57;21049;-74
2022/05/01 13:14:58;;;;;;;3.03;1.30;;;17.80;37.10;;;;;;2346418;57;21599;-76
2022/05/01 13:17:27;;;;;;;5.07;1.50;;;17.80;37.40;;;;;;2359017;56;21181;-77
2022/05/01 13:19:55;;;;;;;1.95;1.30;;;17.70;37.40;;;;;;2369048;56;21043;-75
2022/05/01 13:22:23;;;;;;;4.35;1.52;;;17.70;38.20;;;;;;2368851;56;21408;-72
2022/05/01 13:24:53;;;;;;;1.58;1.30;;;17.60;38.30;;;;;;2620584;52;21087;-74
2022/05/01 13:27:22;;;;;;;4.78;2.10;;;17.60;38.90;;;;;;2368838;56;21021;-74
2022/05/01 13:29:49;;;;;;;4.55;1.25;;;17.50;39.70;;;;;;2369172;56;21035;-75
2022/05/01 13:32:18;;;;;;;3.28;1.40;;;17.50;38.60;;;;;;2621722;52;21098;-78
2022/05/01 13:34:46;;;;;;;2.60;1.20;;;17.40;38.50;;;;;;2623031;52;21118;-77
2022/05/01 13:37:14;;;;;;;2.15;1.30;;;17.40;39.00;;;;;;2370704;56;21567;-76
2022/05/01 13:45:26;;;;;;;3.95;1.37;;;17.30;38.40;;;;;;2302732;56;21453;-76
2022/05/01 13:47:53;;;;;;;2.65;1.20;;;17.20;38.40;;;;;;2369111;56;21053;-76
2022/05/01 13:50:21;;;;;;;6.72;2.12;;;17.20;38.50;;;;;;2370136;56;21079;-74